Crofton, MD (21114)

5:07 AM EDT on April 21, 2015 (GMT -0400)
Cedar Grove | | Change Station
CLOSE
Current Station
Personal Weather Station
Location: Crofton, MD
Elevation: 98 ft
Nearby Weather Stations
Active Advisory: Coastal Flood Advisory

Elev 98 ft 39.01 °N, 76.69 °W | Updated 1 minute ago

Partly Cloudy
Partly Cloudy
57.9 °F
Feels Like 57.9 °F
N
1.0
Wind Variable Wind from NNW
Gusts 3.0 mph

Today
High -- | Low -- °F
--% Chance of Precip.
Yesterday
High -- | Low -- °F
Precip. -- in
6:22 AM 7:49 PM
Waxing Crescent, 9% visible
Pressure 29.68 in
Visibility 7.0 miles
Clouds Scattered Clouds 7000 ft
Mostly Cloudy 9000 ft
Dew Point 55 °F
Humidity 91%
Rainfall 0.10 in
Snow Depth Not available.
UV 0 out of 12
Pollen 1.90 out of 12
Air Quality Not available.
Flu Activity Regional
METAR KFME 210854Z AUTO 29007KT 7SM SCT070 BKN090 13/12 A2968 RMK AO1

More Conditions Fewer Conditions

Pressure 29.68 in
Visibility 7.0 miles
Clouds Scattered Clouds 7000 ft
Mostly Cloudy 9000 ft
Dew Point 55 °F
Humidity 91%
Rainfall 0.10 in
Snow Depth Not available.
UV 0 out of 12
Pollen 1.90 out of 12
Air Quality Not available.
Flu Activity Regional
METAR KFME 210854Z AUTO 29007KT 7SM SCT070 BKN090 13/12 A2968 RMK AO1

More Conditions Fewer Conditions

10-Day Weather Forecast

Almanac

Astronomy

Apr. 21, 2015 Rise Set
Actual Time
Civil Twilight
Nautical Twilight
Astronomical Twilight
Moon
Length of Visible Light
Length of Day
Tomorrow will be .
, % of the Moon is Illuminated

Today's Extremes

State Highs State Lows

Community

WunderPhotos

Upload Photos

1,815,329 photos uploaded!

WunderBlogs® & News

Nearby

Air Quality

  Air Quality AQ Index Pollutant
Not available.

Snow Depth

Station Depth Elevation

Earthquake Activity

City Distance Mag. Time & Date
Minimum magnitude displayed is 2.5.

Coastal Water Temperatures

Place Temperature

Stations

Nearby Weather Stations

Station Location Temp. Windchill Dew Point Humidity Wind Precip. Elev Updated Type
                   
Coastal Flood Advisory
Statement as of 4:53 AM EDT on April 21, 2015

... Coastal Flood Advisory in effect until 10 am EDT this
morning...

The National Weather Service in Baltimore MD/Washington has
issued a coastal Flood Advisory... which is in effect until 10 am
EDT this morning.

* Tidal anomaly... one to one and a half feet above normal.

* Timing... near high tide this morning.

* Expected impacts... minor tidal inundation in sensitive
locations... including the parking lot at Annapolis city dock.

Here are the times of the next high tides
for a few locations from north to south...
on the Chesapeake Bay...

Annapolis U.S. Naval Academy... 8:04 am and 8:15 PM...
Chesapeake Beach... 6:34 am and 6:59 PM...

Precautionary/preparedness actions...

A coastal Flood Advisory indicates that onshore winds and tides
will combine to generate flooding of low areas along the shore.